createdAt,value
2023-03-13T00:01:34.648Z,95433.73
2023-03-13T00:04:01.505Z,95435.91
2023-03-13T00:06:34.357Z,95436.40
2023-03-13T00:09:02.383Z,95434.54
2023-03-13T00:11:29.439Z,95433.73
2023-03-13T00:13:58.139Z,95435.89
2023-03-13T00:16:25.094Z,95441.73
2023-03-13T00:18:53.540Z,95443.42
2023-03-13T00:21:23.051Z,95443.38
2023-03-13T00:23:50.539Z,95453.02
2023-03-13T00:26:20.031Z,95449.34
2023-03-13T00:28:48.278Z,95451.67
2023-03-13T00:31:18.319Z,95452.67
2023-03-13T00:33:50.306Z,95454.61
2023-03-13T00:36:20.793Z,95449.02
2023-03-13T00:38:49.187Z,95447.63
2023-03-13T00:41:21.701Z,95450.51
2023-03-13T00:43:49.583Z,95452.41
2023-03-13T00:46:19.708Z,95453.77
2023-03-13T00:48:46.736Z,95455.16
2023-03-13T00:51:15.532Z,95449.45
2023-03-13T00:53:42.984Z,95450.27
2023-03-13T00:56:15.314Z,95449.58
2023-03-13T00:58:43.707Z,95446.77
2023-03-13T01:01:13.372Z,95448.05
2023-03-13T01:03:41.831Z,95445.09
2023-03-13T01:06:11.803Z,95443.45
2023-03-13T01:08:39.423Z,95444.58
2023-03-13T01:11:11.268Z,95443.71
2023-03-13T01:13:38.606Z,95438.59
2023-03-13T01:16:18.027Z,95442.17
2023-03-13T01:18:48.444Z,95442.33
2023-03-13T01:21:16.333Z,95440.42
2023-03-13T01:23:43.133Z,95441.27
2023-03-13T01:26:10.278Z,95442.30
2023-03-13T01:28:38.325Z,95447.35
2023-03-13T01:31:19.550Z,95446.55
2023-03-13T01:33:48.371Z,95451.66
2023-03-13T01:36:16.978Z,95458.18
2023-03-13T01:38:43.906Z,95458.70
2023-03-13T01:41:12.504Z,95458.86
2023-03-13T01:43:39.670Z,95462.55
2023-03-13T01:46:18.541Z,95464.30
2023-03-13T01:49:11.448Z,95466.46
2023-03-13T01:52:22.776Z,95465.91
2023-03-13T01:54:59.736Z,95462.12
2023-03-13T01:57:33.683Z,95464.45
2023-03-13T02:00:09.977Z,95465.30
2023-03-13T02:02:43.073Z,95467.21
2023-03-13T02:05:10.093Z,95471.05
2023-03-13T02:07:50.853Z,95461.04
2023-03-13T02:10:19.022Z,95454.80
2023-03-13T02:12:45.865Z,95464.33
2023-03-13T02:15:19.598Z,95469.86
2023-03-13T02:17:48.546Z,95473.56
2023-03-13T02:20:18.221Z,95474.31
2023-03-13T02:22:54.080Z,95477.95
2023-03-13T02:25:23.542Z,95482.61
2023-03-13T02:27:55.556Z,95483.59
2023-03-13T02:30:22.647Z,95489.23
2023-03-13T02:32:50.322Z,95488.19
2023-03-13T02:35:20.223Z,95491.37
2023-03-13T02:37:51.883Z,95500.30
2023-03-13T02:40:25.691Z,95510.21
2023-03-13T02:42:54.773Z,95516.63
2023-03-13T02:45:22.019Z,95521.68
2023-03-13T02:47:49.018Z,95528.45
2023-03-13T02:50:15.977Z,95537.96
2023-03-13T02:52:50.685Z,95533.88
2023-03-13T02:55:40.820Z,95535.94
2023-03-13T02:58:08.262Z,95540.88
2023-03-13T03:00:36.533Z,95538.86
2023-03-13T03:03:03.554Z,95535.05
2023-03-13T03:05:30.351Z,95533.65
2023-03-13T03:07:57.552Z,95534.36
2023-03-13T03:10:24.932Z,95534.56
2023-03-13T03:12:51.653Z,95528.83
2023-03-13T03:15:18.736Z,95535.48
2023-03-13T03:17:45.865Z,95551.64
2023-03-13T03:20:12.713Z,95559.58
2023-03-13T03:22:42.197Z,95560.83
2023-03-13T03:25:09.606Z,95569.78
2023-03-13T03:27:37.061Z,95573.38
2023-03-13T03:30:06.910Z,95578.27
2023-03-13T03:32:34.571Z,95578.55
2023-03-13T03:35:01.442Z,95569.06
2023-03-13T03:37:28.549Z,95573.02
2023-03-13T03:39:55.404Z,95573.40
2023-03-13T03:42:22.320Z,95582.08
2023-03-13T03:44:49.219Z,95590.42
2023-03-13T03:47:16.165Z,95605.96
2023-03-13T03:49:45.103Z,95613.09
2023-03-13T03:52:12.271Z,95611.83
2023-03-13T03:54:40.692Z,95603.53
2023-03-13T03:57:07.549Z,95603.85
2023-03-13T03:59:34.422Z,95610.80
2023-03-13T04:02:07.323Z,95609.81
2023-03-13T04:04:34.836Z,95615.48
2023-03-13T04:07:05.515Z,95617.05
2023-03-13T04:09:33.476Z,95620.52
2023-03-13T04:12:01.561Z,95629.36
2023-03-13T04:14:30.170Z,95631.83
2023-03-13T04:16:57.636Z,95635.68
2023-03-13T04:19:24.743Z,95643.09
2023-03-13T04:21:51.578Z,95647.08
2023-03-13T04:24:19.493Z,95646.57
2023-03-13T04:26:46.264Z,95644.63
2023-03-13T04:29:14.660Z,95649.68
2023-03-13T04:31:50.053Z,95654.70
2023-03-13T04:34:42.688Z,95656.54
2023-03-13T04:37:28.182Z,95663.30
2023-03-13T04:40:25.560Z,95670.26
2023-03-13T04:43:09.191Z,95679.06
2023-03-13T04:45:35.858Z,95681.40
2023-03-13T04:48:21.266Z,95684.60
2023-03-13T04:51:11.011Z,95691.07
2023-03-13T04:53:50.353Z,95692.84
2023-03-13T04:56:43.189Z,95691.80
2023-03-13T04:59:33.663Z,95687.17
2023-03-13T05:02:16.356Z,95694.77
2023-03-13T05:05:11.263Z,95693.70
2023-03-13T05:07:50.034Z,95689.64
2023-03-13T05:10:31.806Z,95687.19
2023-03-13T05:13:10.238Z,95688.50
2023-03-13T05:15:53.763Z,95699.48
2023-03-13T05:18:39.481Z,95706.30
2023-03-13T05:21:22.362Z,95706.19
2023-03-13T05:24:00.905Z,95712.77
2023-03-13T05:27:06.067Z,95711.61
2023-03-13T05:29:32.923Z,95714.16
2023-03-13T05:32:08.637Z,95717.20
2023-03-13T05:34:47.714Z,95719.55
2023-03-13T05:37:32.735Z,95714.29
2023-03-13T05:40:18.509Z,95716.39
2023-03-13T05:43:08.497Z,95719.50
2023-03-13T05:45:53.852Z,95717.68
2023-03-13T05:48:34.231Z,95713.84
2023-03-13T05:51:23.977Z,95719.58
2023-03-13T05:54:13.747Z,95725.25
2023-03-13T05:56:57.306Z,95728.08
2023-03-13T05:59:33.676Z,95728.58
2023-03-13T06:02:38.499Z,95734.82
2023-03-13T06:05:06.830Z,95737.48
2023-03-13T06:07:33.848Z,95736.86
2023-03-13T06:10:00.694Z,95736.08
2023-03-13T06:12:27.431Z,95735.56
2023-03-13T06:14:54.222Z,95733.42
2023-03-13T06:17:40.934Z,95728.31
2023-03-13T06:20:08.184Z,95730.36
2023-03-13T06:22:35.054Z,95733.88
2023-03-13T06:25:01.851Z,95734.83
2023-03-13T06:27:28.605Z,95733.59
2023-03-13T06:29:55.395Z,95731.36
2023-03-13T06:32:25.338Z,95732.78
2023-03-13T06:34:52.432Z,95726.11
2023-03-13T06:37:19.323Z,95715.61
2023-03-13T06:39:46.548Z,95708.64
2023-03-13T06:42:13.401Z,95710.05
2023-03-13T06:44:41.648Z,95720.33
2023-03-13T06:47:13.003Z,95730.19
2023-03-13T06:49:41.199Z,95724.83
2023-03-13T06:52:09.589Z,95723.16
2023-03-13T06:54:36.470Z,95724.46
2023-03-13T06:57:03.342Z,95719.00
2023-03-13T06:59:30.128Z,95720.20
2023-03-13T07:01:57.022Z,95716.58
2023-03-13T07:04:23.903Z,95713.20
2023-03-13T07:06:51.953Z,95715.15
2023-03-13T07:09:20.139Z,95710.11
2023-03-13T07:11:47.689Z,95713.66
2023-03-13T07:14:17.326Z,95714.05
2023-03-13T07:16:45.419Z,95720.20
2023-03-13T07:19:12.838Z,95715.88
2023-03-13T07:21:41.883Z,95708.25
2023-03-13T07:24:08.822Z,95706.33
2023-03-13T07:26:35.698Z,95703.39
2023-03-13T07:29:05.590Z,95702.86
2023-03-13T07:31:34.179Z,95702.17
2023-03-13T07:34:01.036Z,95700.60
2023-03-13T07:36:27.979Z,95699.41
2023-03-13T07:38:54.792Z,95703.59
2023-03-13T07:41:21.717Z,95707.98
2023-03-13T07:43:48.581Z,95705.68
2023-03-13T07:46:18.849Z,95712.09
2023-03-13T07:48:46.437Z,95709.59
2023-03-13T07:51:18.170Z,95707.21
2023-03-13T07:53:47.835Z,95708.67
2023-03-13T07:56:20.018Z,95704.20
2023-03-13T07:58:47.113Z,95700.48
2023-03-13T08:01:29.070Z,95700.78
2023-03-13T08:03:58.841Z,95690.88
2023-03-13T08:06:27.045Z,95688.96
2023-03-13T08:08:58.268Z,95690.37
2023-03-13T08:11:26.771Z,95691.70
2023-03-13T08:13:55.235Z,95691.44
2023-03-13T08:16:24.784Z,95686.49
2023-03-13T08:18:55.268Z,95688.19
2023-03-13T08:21:27.290Z,95689.58
2023-03-13T08:23:55.977Z,95690.55
2023-03-13T08:26:24.630Z,95692.52
2023-03-13T08:28:56.990Z,95693.72
2023-03-13T08:31:35.915Z,95699.30
2023-03-13T08:34:03.043Z,95702.16
2023-03-13T08:36:33.164Z,95703.77
2023-03-13T08:39:02.226Z,95706.48
2023-03-13T08:41:34.904Z,95700.51
2023-03-13T08:44:02.075Z,95698.45
2023-03-13T08:46:33.757Z,95696.05
2023-03-13T08:49:00.774Z,95693.98
2023-03-13T08:51:30.975Z,95694.17
2023-03-13T08:53:58.045Z,95693.77
2023-03-13T08:56:28.286Z,95692.41
2023-03-13T08:59:18.897Z,95689.52
2023-03-13T09:01:45.759Z,95694.86
2023-03-13T09:04:12.676Z,95693.19
2023-03-13T09:06:39.431Z,95693.55
2023-03-13T09:09:08.145Z,95691.36
2023-03-13T09:11:36.999Z,95691.91
2023-03-13T09:14:03.850Z,95695.38
2023-03-13T09:16:32.679Z,95686.63
2023-03-13T09:18:59.777Z,95681.96
2023-03-13T09:21:34.923Z,95679.17
2023-03-13T09:24:02.401Z,95678.12
2023-03-13T09:26:30.285Z,95681.95
2023-03-13T09:28:57.855Z,95683.79
2023-03-13T09:31:27.254Z,95683.67
2023-03-13T09:33:54.496Z,95686.23
2023-03-13T09:36:23.210Z,95692.33
2023-03-13T09:38:55.379Z,95691.63
2023-03-13T09:41:28.000Z,95687.04
2023-03-13T09:44:17.756Z,95686.70
2023-03-13T09:46:48.539Z,95682.47
2023-03-13T09:49:27.666Z,95674.00
2023-03-13T09:52:11.197Z,95672.45
2023-03-13T09:54:49.923Z,95669.48
2023-03-13T09:57:32.237Z,95667.11
2023-03-13T10:00:22.058Z,95666.26
2023-03-13T10:06:29.063Z,95666.88
2023-03-13T10:09:35.481Z,95658.05
2023-03-13T10:12:15.089Z,95657.09
2023-03-13T10:14:53.972Z,95650.61
2023-03-13T10:17:34.636Z,95641.95
2023-03-13T10:20:16.341Z,95633.73
2023-03-13T10:22:46.789Z,95626.20
2023-03-13T10:25:22.411Z,95622.98
2023-03-13T10:27:53.350Z,95622.48
2023-03-13T10:30:28.488Z,95618.21
2023-03-13T10:33:01.274Z,95615.21
2023-03-13T10:35:33.722Z,95609.65
2023-03-13T10:38:05.246Z,95604.50
2023-03-13T10:40:32.548Z,95602.90
2023-03-13T10:43:20.616Z,95594.77
2023-03-13T10:45:48.876Z,95591.64
2023-03-13T10:48:20.274Z,95589.66
2023-03-13T10:50:50.663Z,95588.40
2023-03-13T10:53:29.589Z,95589.93
2023-03-13T10:56:03.237Z,95588.23
2023-03-13T10:58:42.691Z,95584.09
2023-03-13T11:01:23.133Z,95583.27
2023-03-13T11:03:53.224Z,95576.98
2023-03-13T11:06:28.924Z,95571.80
2023-03-13T11:09:16.470Z,95569.17
2023-03-13T11:11:50.475Z,95564.19
2023-03-13T11:14:25.977Z,95560.95
2023-03-13T11:16:53.230Z,95555.48
2023-03-13T11:19:30.037Z,95554.26
2023-03-13T11:21:59.906Z,95550.19
2023-03-13T11:24:49.843Z,95551.42
2023-03-13T11:27:29.857Z,95545.42
2023-03-13T11:30:04.649Z,95542.88
2023-03-13T11:32:47.743Z,95534.94
2023-03-13T11:35:40.584Z,95529.16
2023-03-13T11:38:20.149Z,95530.55
2023-03-13T11:41:15.928Z,95523.34
2023-03-13T11:43:51.290Z,95518.61
2023-03-13T11:46:43.427Z,95517.01
2023-03-13T11:49:43.382Z,95509.96
2023-03-13T11:52:19.557Z,95507.75
2023-03-13T11:54:57.485Z,95500.58
2023-03-13T11:57:40.349Z,95491.45
2023-03-13T12:00:24.953Z,95492.63
2023-03-13T12:03:06.558Z,95481.84
2023-03-13T12:05:43.684Z,95484.86
2023-03-13T12:08:27.052Z,95479.28
2023-03-13T12:11:22.359Z,95471.80
2023-03-13T12:13:56.197Z,95468.93
2023-03-13T12:16:39.616Z,95462.95
2023-03-13T12:19:11.345Z,95460.47
2023-03-13T12:21:47.993Z,95460.72
2023-03-13T12:24:34.233Z,95455.95
2023-03-13T12:27:03.972Z,95459.09
2023-03-13T12:29:40.733Z,95455.25
2023-03-13T12:32:11.625Z,95452.01
2023-03-13T12:34:45.425Z,95453.52
2023-03-13T12:37:30.703Z,95451.67
2023-03-13T12:40:14.572Z,95446.31
2023-03-13T12:42:58.450Z,95443.40
2023-03-13T12:45:26.691Z,95446.98
2023-03-13T12:48:11.937Z,95445.29
2023-03-13T12:51:02.901Z,95444.73
2023-03-13T12:53:32.841Z,95443.37
2023-03-13T12:56:24.136Z,95445.34
2023-03-13T12:59:16.399Z,95449.15
2023-03-13T13:01:48.235Z,95451.33
2023-03-13T13:04:16.679Z,95447.07
2023-03-13T13:06:57.717Z,95450.15
2023-03-13T13:09:40.183Z,95452.75
2023-03-13T13:12:20.361Z,95449.32
2023-03-13T13:14:50.338Z,95445.83
2023-03-13T13:17:43.168Z,95445.16
2023-03-13T13:20:45.230Z,95445.36
2023-03-13T13:23:34.204Z,95441.44
2023-03-13T13:26:37.562Z,95437.76
2023-03-13T13:29:27.642Z,95434.85
2023-03-13T13:31:57.955Z,95434.66
2023-03-13T13:34:36.427Z,95430.05
2023-03-13T13:37:23.092Z,95425.33
2023-03-13T13:39:54.311Z,95417.27
2023-03-13T13:42:33.132Z,95417.48
2023-03-13T13:45:14.946Z,95419.22
2023-03-13T13:47:45.209Z,95415.88
2023-03-13T13:50:32.289Z,95414.37
2023-03-13T13:53:33.390Z,95417.55
2023-03-13T13:56:03.371Z,95417.48
2023-03-13T13:58:32.587Z,95415.98
2023-03-13T14:01:11.235Z,95408.65
2023-03-13T14:03:42.375Z,95413.70
2023-03-13T14:06:23.147Z,95411.02
2023-03-13T14:08:55.481Z,95410.70
2023-03-13T14:11:31.844Z,95406.77
2023-03-13T14:14:16.087Z,95406.52
2023-03-13T14:16:57.104Z,95404.02
2023-03-13T14:19:34.075Z,95403.08
2023-03-13T14:22:03.204Z,95403.06
2023-03-13T14:24:29.966Z,95402.95
2023-03-13T14:26:57.019Z,95402.15
2023-03-13T14:29:26.997Z,95402.16
2023-03-13T14:31:56.549Z,95399.92
2023-03-13T14:34:23.893Z,95397.64
2023-03-13T14:37:07.408Z,95396.37
2023-03-13T14:39:46.353Z,95400.33
2023-03-13T14:42:16.092Z,95394.72
2023-03-13T14:44:46.636Z,95397.13
2023-03-13T14:47:27.118Z,95395.43
2023-03-13T14:50:15.003Z,95395.95
2023-03-13T14:52:49.769Z,95395.48
2023-03-13T14:55:22.628Z,95389.58
2023-03-13T14:58:27.041Z,95389.45
2023-03-13T15:00:55.483Z,95390.08
2023-03-13T15:03:27.640Z,95387.86
2023-03-13T15:06:07.646Z,95387.55
2023-03-13T15:08:44.158Z,95383.30
2023-03-13T15:11:27.689Z,95387.04
2023-03-13T15:13:55.220Z,95384.38
2023-03-13T15:16:23.858Z,95389.20
2023-03-13T15:18:51.809Z,95390.09
2023-03-13T15:21:33.008Z,95387.89
2023-03-13T15:24:12.612Z,95388.28
2023-03-13T15:26:39.609Z,95390.89
2023-03-13T15:29:06.517Z,95394.02
2023-03-13T15:31:33.570Z,95395.77
2023-03-13T15:34:01.784Z,95395.92
2023-03-13T15:36:30.088Z,95398.70
2023-03-13T15:38:57.915Z,95403.87
2023-03-13T15:41:25.117Z,95403.30
2023-03-13T15:43:57.052Z,95407.21
2023-03-13T15:46:25.776Z,95408.75
2023-03-13T15:48:54.083Z,95405.33
2023-03-13T15:51:21.130Z,95405.20
2023-03-13T15:53:48.109Z,95403.98
2023-03-13T15:56:17.792Z,95402.83
2023-03-13T15:58:47.381Z,95399.56
2023-03-13T16:01:16.501Z,95400.02
2023-03-13T16:03:43.803Z,95395.84
2023-03-13T16:06:19.917Z,95395.20
2023-03-13T16:08:47.449Z,95390.55
2023-03-13T16:11:16.841Z,95389.05
2023-03-13T16:13:44.054Z,95384.23
2023-03-13T16:16:22.703Z,95381.14
2023-03-13T16:18:51.003Z,95378.64
2023-03-13T16:21:21.100Z,95374.98
2023-03-13T16:23:48.574Z,95374.58
2023-03-13T16:26:24.140Z,95372.41
2023-03-13T16:28:52.680Z,95370.15
2023-03-13T16:31:21.272Z,95378.50
2023-03-13T16:33:48.786Z,95385.30
2023-03-13T16:36:18.191Z,95384.39
2023-03-13T16:38:47.842Z,95388.39
2023-03-13T16:41:18.118Z,95396.86
2023-03-13T16:43:46.175Z,95395.55
2023-03-13T16:46:32.563Z,95405.55
2023-03-13T16:48:59.854Z,95408.77
2023-03-13T16:51:27.809Z,95410.52
2023-03-13T16:53:56.930Z,95415.83
2023-03-13T16:56:38.704Z,95416.57
2023-03-13T16:59:21.607Z,95423.52
2023-03-13T17:01:48.477Z,95420.75
2023-03-13T17:04:15.380Z,95416.81
2023-03-13T17:06:44.813Z,95419.45
2023-03-13T17:09:17.764Z,95421.98
2023-03-13T17:11:45.006Z,95424.24
2023-03-13T17:14:13.342Z,95429.12
2023-03-13T17:16:43.600Z,95428.67
2023-03-13T17:19:14.563Z,95432.41
2023-03-13T17:21:41.512Z,95431.15
2023-03-13T17:24:08.411Z,95436.02
2023-03-13T17:26:37.959Z,95433.17
2023-03-13T17:29:06.683Z,95431.07
2023-03-13T17:31:37.518Z,95431.71
2023-03-13T17:34:05.994Z,95432.81
2023-03-13T17:36:33.423Z,95432.98
2023-03-13T17:39:02.114Z,95434.30
2023-03-13T17:41:32.127Z,95437.42
2023-03-13T17:44:03.933Z,95441.69
2023-03-13T17:46:44.186Z,95440.67
2023-03-13T17:49:13.275Z,95445.70
2023-03-13T17:51:41.751Z,95455.20
2023-03-13T17:54:09.125Z,95454.77
2023-03-13T17:56:39.559Z,95455.42
2023-03-13T17:59:19.271Z,95458.13
2023-03-13T18:01:46.482Z,95456.82
2023-03-13T18:04:13.511Z,95455.75
2023-03-13T18:06:43.459Z,95456.70
2023-03-13T18:09:16.461Z,95455.21
2023-03-13T18:11:43.924Z,95456.84
2023-03-13T18:14:11.409Z,95457.37
2023-03-13T18:16:50.557Z,95455.64
2023-03-13T18:19:22.382Z,95462.09
2023-03-13T18:21:54.310Z,95458.72
2023-03-13T18:24:21.863Z,95456.86
2023-03-13T18:26:49.923Z,95461.92
2023-03-13T18:29:26.643Z,95463.42
2023-03-13T18:31:55.441Z,95459.88
2023-03-13T18:34:23.502Z,95460.55
2023-03-13T18:36:50.752Z,95459.41
2023-03-13T18:39:18.702Z,95458.48
2023-03-13T18:41:49.257Z,95462.19
2023-03-13T18:44:18.941Z,95467.39
2023-03-13T18:46:45.978Z,95475.68
2023-03-13T18:49:18.997Z,95478.02
2023-03-13T18:51:46.885Z,95477.48
2023-03-13T18:54:14.236Z,95478.10
2023-03-13T18:56:41.630Z,95481.30
2023-03-13T18:59:13.364Z,95480.16
2023-03-13T19:01:40.691Z,95486.52
2023-03-13T19:04:07.578Z,95485.34
2023-03-13T19:06:36.575Z,95487.17
2023-03-13T19:09:41.139Z,95487.20
2023-03-13T19:12:03.321Z,95479.98
2023-03-13T19:14:31.214Z,95481.73
2023-03-13T19:16:58.426Z,95485.92
2023-03-13T19:19:26.272Z,95486.83
2023-03-13T19:21:57.220Z,95487.98
2023-03-13T19:24:26.883Z,95487.73
2023-03-13T19:26:58.806Z,95483.98
2023-03-13T19:29:27.941Z,95489.84
2023-03-13T19:31:55.360Z,95486.86
2023-03-13T19:34:22.458Z,95490.05
2023-03-13T19:36:50.297Z,95488.08
2023-03-13T19:39:19.751Z,95492.77
2023-03-13T19:41:49.657Z,95497.74
2023-03-13T19:44:17.789Z,95500.02
2023-03-13T19:46:45.499Z,95495.94
2023-03-13T19:49:15.078Z,95493.58
2023-03-13T19:51:42.075Z,95498.61
2023-03-13T19:54:12.890Z,95499.73
2023-03-13T19:56:43.575Z,95503.18
2023-03-13T19:59:19.332Z,95503.88
2023-03-13T20:01:46.562Z,95502.60
2023-03-13T20:04:13.912Z,95499.09
2023-03-13T20:06:43.249Z,95502.21
2023-03-13T20:09:12.431Z,95503.48
2023-03-13T20:11:39.344Z,95504.14
2023-03-13T20:14:06.709Z,95506.58
2023-03-13T20:16:35.098Z,95508.88
2023-03-13T20:19:02.957Z,95503.73
2023-03-13T20:21:32.810Z,95506.08
2023-03-13T20:24:00.543Z,95506.23
2023-03-13T20:26:28.782Z,95509.64
2023-03-13T20:28:56.576Z,95508.98
2023-03-13T20:31:26.415Z,95510.96
2023-03-13T20:33:53.578Z,95505.50
2023-03-13T20:36:21.319Z,95502.47
2023-03-13T20:38:48.242Z,95499.55
2023-03-13T20:41:16.582Z,95502.30
2023-03-13T20:43:43.642Z,95497.90
2023-03-13T20:46:10.969Z,95497.38
2023-03-13T20:48:39.607Z,95497.38
2023-03-13T20:51:08.240Z,95491.30
2023-03-13T20:53:40.360Z,95489.05
2023-03-13T20:56:08.808Z,95482.48
2023-03-13T20:58:36.977Z,95476.95
2023-03-13T21:01:05.496Z,95473.67
2023-03-13T21:03:35.488Z,95476.77
2023-03-13T21:06:10.324Z,95477.93
2023-03-13T21:08:38.674Z,95473.50
2023-03-13T21:11:22.792Z,95468.20
2023-03-13T21:13:50.365Z,95466.14
2023-03-13T21:16:18.929Z,95461.52
2023-03-13T21:18:46.879Z,95454.66
2023-03-13T21:21:18.982Z,95451.54
2023-03-13T21:23:46.519Z,95451.45
2023-03-13T21:26:14.087Z,95448.73
2023-03-13T21:28:41.078Z,95450.30
2023-03-13T21:31:16.295Z,95448.60
2023-03-13T21:33:45.051Z,95458.48
2023-03-13T21:36:13.520Z,95461.94
2023-03-13T21:38:40.614Z,95469.36
2023-03-13T21:41:12.583Z,95470.33
2023-03-13T21:43:41.664Z,95467.81
2023-03-13T21:46:10.956Z,95467.16
2023-03-13T21:48:39.214Z,95463.10
2023-03-13T21:51:08.482Z,95468.08
2023-03-13T21:53:36.197Z,95463.55
2023-03-13T21:56:04.024Z,95464.50
2023-03-13T21:58:30.967Z,95462.55
2023-03-13T22:00:58.495Z,95465.20
2023-03-13T22:03:28.556Z,95460.88
2023-03-13T22:05:55.487Z,95455.33
2023-03-13T22:08:22.481Z,95454.72
2023-03-13T22:10:51.102Z,95451.91
2023-03-13T22:13:18.740Z,95458.39
2023-03-13T22:15:46.729Z,95453.59
2023-03-13T22:18:14.901Z,95452.56
2023-03-13T22:20:42.529Z,95452.11
2023-03-13T22:23:10.846Z,95448.38
2023-03-13T22:25:39.609Z,95444.38
2023-03-13T22:28:06.546Z,95445.45
2023-03-13T22:30:33.302Z,95446.39
2023-03-13T22:33:00.176Z,95445.61
2023-03-13T22:35:26.938Z,95443.97
2023-03-13T22:37:53.806Z,95443.61
2023-03-13T22:40:20.677Z,95438.69
2023-03-13T22:42:47.465Z,95442.60
2023-03-13T22:45:14.375Z,95443.13
2023-03-13T22:47:41.126Z,95440.45
2023-03-13T22:50:10.991Z,95438.77
2023-03-13T22:52:38.597Z,95435.81
2023-03-13T22:55:05.907Z,95438.65
2023-03-13T22:57:32.850Z,95439.28
2023-03-13T23:00:00.347Z,95435.83
2023-03-13T23:02:27.942Z,95433.09
2023-03-13T23:04:59.467Z,95433.08
2023-03-13T23:07:28.554Z,95433.48
2023-03-13T23:09:56.581Z,95436.06
2023-03-13T23:12:24.473Z,95439.48
2023-03-13T23:14:52.238Z,95444.27
2023-03-13T23:17:19.063Z,95443.81
2023-03-13T23:19:45.921Z,95443.33
2023-03-13T23:22:17.913Z,95444.45
2023-03-13T23:24:44.982Z,95444.66
2023-03-13T23:27:11.928Z,95446.89
2023-03-13T23:29:39.111Z,95451.67
2023-03-13T23:32:06.060Z,95450.40
2023-03-13T23:34:35.428Z,95452.96
2023-03-13T23:37:02.144Z,95449.80
2023-03-13T23:39:28.984Z,95447.83
2023-03-13T23:41:56.324Z,95449.28
2023-03-13T23:44:23.186Z,95447.46
2023-03-13T23:46:50.004Z,95444.77
2023-03-13T23:49:16.845Z,95446.95
2023-03-13T23:51:43.619Z,95440.39
2023-03-13T23:54:10.345Z,95438.04
2023-03-13T23:56:37.105Z,95436.02
2023-03-13T23:59:03.920Z,95431.42
